createdAt,value
2018-10-18T00:00:53.532Z,53.47
2018-10-18T00:03:22.438Z,52.07
2018-10-18T00:05:51.395Z,53.87
2018-10-18T00:08:20.353Z,51.70
2018-10-18T00:10:49.316Z,52.10
2018-10-18T00:13:18.577Z,51.73
2018-10-18T00:15:47.985Z,52.27
2018-10-18T00:18:17.049Z,50.90
2018-10-18T00:20:45.912Z,50.87
2018-10-18T00:23:14.756Z,50.20
2018-10-18T00:25:43.652Z,50.63
2018-10-18T00:28:12.536Z,52.33
2018-10-18T00:30:41.431Z,52.77
2018-10-18T00:33:10.348Z,52.10
2018-10-18T00:35:39.229Z,49.43
2018-10-18T00:38:08.243Z,50.67
2018-10-18T00:40:37.119Z,51.23
2018-10-18T00:43:06.068Z,47.87
2018-10-18T00:45:34.963Z,49.97
2018-10-18T00:48:04.111Z,49.37
2018-10-18T00:50:33.002Z,52.20
2018-10-18T00:53:01.899Z,50.80
2018-10-18T00:55:30.790Z,52.17
2018-10-18T00:57:59.713Z,52.70
2018-10-18T01:00:28.596Z,51.10
2018-10-18T01:02:57.505Z,51.67
2018-10-18T01:05:26.492Z,52.73
2018-10-18T01:07:55.483Z,56.03
2018-10-18T01:10:24.352Z,55.27
2018-10-18T01:12:53.273Z,59.57
2018-10-18T01:15:22.152Z,62.20
2018-10-18T01:17:51.031Z,63.53
2018-10-18T01:20:19.994Z,67.30
2018-10-18T01:22:48.857Z,67.93
2018-10-18T01:25:17.764Z,66.03
2018-10-18T01:27:46.689Z,66.60
2018-10-18T01:30:15.679Z,64.00
2018-10-18T01:32:44.507Z,67.97
2018-10-18T01:35:13.447Z,67.70
2018-10-18T01:37:42.319Z,64.87
2018-10-18T01:40:11.174Z,63.77
2018-10-18T01:42:40.118Z,65.47
2018-10-18T01:45:09.004Z,66.20
2018-10-18T01:47:37.920Z,66.03
2018-10-18T01:50:07.976Z,66.33
2018-10-18T01:52:36.860Z,63.80
2018-10-18T01:55:06.634Z,63.70
2018-10-18T01:57:35.557Z,62.00
2018-10-18T02:00:04.562Z,62.67
2018-10-18T02:02:33.479Z,62.87
2018-10-18T02:05:02.436Z,62.03
2018-10-18T02:07:31.341Z,60.90
2018-10-18T02:10:00.215Z,63.57
2018-10-18T02:12:29.107Z,63.63
2018-10-18T02:14:57.997Z,61.70
2018-10-18T02:17:27.003Z,63.23
2018-10-18T02:19:55.960Z,63.77
2018-10-18T02:22:24.862Z,66.13
2018-10-18T02:24:53.752Z,64.27
2018-10-18T02:27:22.660Z,65.77
2018-10-18T02:29:51.593Z,65.23
2018-10-18T02:32:20.571Z,64.00
2018-10-18T02:34:49.476Z,64.63
2018-10-18T02:37:18.381Z,59.33
2018-10-18T02:39:47.301Z,57.30
2018-10-18T02:42:16.209Z,60.33
2018-10-18T02:44:45.093Z,57.00
2018-10-18T02:47:13.971Z,57.80
2018-10-18T02:49:42.905Z,57.50
2018-10-18T02:52:12.485Z,57.50
2018-10-18T02:54:41.806Z,58.20
2018-10-18T02:57:10.713Z,56.90
2018-10-18T02:59:39.662Z,57.17
2018-10-18T03:02:08.999Z,55.60
2018-10-18T03:04:37.931Z,56.63
2018-10-18T03:07:07.205Z,56.20
2018-10-18T03:09:36.163Z,58.27
2018-10-18T03:12:05.644Z,56.73
2018-10-18T03:14:34.536Z,55.93
2018-10-18T03:17:03.437Z,55.17
2018-10-18T03:19:32.419Z,55.40
2018-10-18T03:22:01.285Z,53.97
2018-10-18T03:24:30.177Z,56.37
2018-10-18T03:26:59.093Z,55.73
2018-10-18T03:29:28.108Z,56.90
2018-10-18T03:31:57.023Z,56.10
2018-10-18T03:34:25.929Z,56.87
2018-10-18T03:36:54.811Z,55.77
2018-10-18T03:39:23.718Z,52.80
2018-10-18T03:41:52.648Z,55.70
2018-10-18T03:44:21.537Z,54.93
2018-10-18T03:46:50.541Z,54.97
2018-10-18T03:49:19.436Z,55.03
2018-10-18T03:51:48.350Z,55.23
2018-10-18T03:54:18.145Z,54.97
2018-10-18T03:56:47.370Z,57.53
2018-10-18T03:59:16.288Z,54.93
2018-10-18T04:01:45.173Z,54.97
2018-10-18T04:04:14.031Z,56.63
2018-10-18T04:06:42.932Z,56.40
2018-10-18T04:09:11.831Z,57.07
2018-10-18T04:11:41.343Z,56.33
2018-10-18T04:14:10.290Z,56.33
2018-10-18T04:16:39.153Z,56.17
2018-10-18T04:19:08.106Z,58.10
2018-10-18T04:21:37.060Z,59.90
2018-10-18T04:24:06.171Z,59.93
2018-10-18T04:26:35.110Z,62.20
2018-10-18T04:29:04.021Z,61.70
2018-10-18T04:31:32.970Z,66.50
2018-10-18T04:34:01.914Z,62.63
2018-10-18T04:36:30.816Z,65.87
2018-10-18T04:38:59.735Z,63.67
2018-10-18T04:41:28.721Z,62.43
2018-10-18T04:43:57.616Z,62.50
2018-10-18T04:46:26.604Z,64.63
2018-10-18T04:48:55.563Z,63.27
2018-10-18T04:51:24.438Z,64.87
2018-10-18T04:53:53.360Z,67.33
2018-10-18T04:56:22.248Z,66.77
2018-10-18T04:58:51.239Z,69.00
2018-10-18T05:01:20.228Z,73.20
2018-10-18T05:03:49.104Z,72.37
2018-10-18T05:06:18.132Z,70.80
2018-10-18T05:08:47.334Z,73.47
2018-10-18T05:11:16.275Z,71.33
2018-10-18T05:13:45.187Z,72.03
2018-10-18T05:16:14.104Z,71.83
2018-10-18T05:18:43.276Z,71.33
2018-10-18T05:21:12.213Z,67.97
2018-10-18T05:23:41.183Z,69.33
2018-10-18T05:26:11.005Z,68.70
2018-10-18T05:28:40.002Z,67.80
2018-10-18T05:31:08.941Z,65.83
2018-10-18T05:33:37.954Z,64.70
2018-10-18T05:36:06.968Z,66.80
2018-10-18T05:38:36.267Z,64.87
2018-10-18T05:41:05.461Z,66.60
2018-10-18T05:43:34.441Z,65.97
2018-10-18T05:46:03.384Z,63.13
2018-10-18T05:48:32.273Z,65.50
2018-10-18T05:51:01.279Z,64.90
2018-10-18T05:53:30.227Z,64.47
2018-10-18T05:55:59.152Z,65.20
2018-10-18T05:58:28.140Z,66.47
2018-10-18T06:00:57.115Z,66.20
2018-10-18T06:03:26.043Z,64.33
2018-10-18T06:05:54.991Z,64.83
2018-10-18T06:08:24.046Z,64.27
2018-10-18T06:11:03.988Z,64.30
2018-10-18T06:13:32.938Z,63.97
2018-10-18T06:16:01.829Z,65.50
2018-10-18T06:18:30.739Z,65.30
2018-10-18T06:20:59.697Z,63.20
2018-10-18T06:23:28.742Z,64.10
2018-10-18T06:25:57.508Z,65.87
2018-10-18T06:28:26.485Z,66.83
2018-10-18T06:30:55.415Z,65.47
2018-10-18T06:33:24.307Z,63.53
2018-10-18T06:35:53.285Z,64.60
2018-10-18T06:38:22.184Z,63.67
2018-10-18T06:40:51.078Z,63.80
2018-10-18T06:43:19.982Z,63.93
2018-10-18T06:45:48.903Z,65.90
2018-10-18T06:48:17.887Z,65.97
2018-10-18T06:50:46.786Z,65.87
2018-10-18T06:53:15.678Z,65.70
2018-10-18T06:55:45.225Z,68.10
2018-10-18T06:58:14.109Z,70.87
2018-10-18T07:00:43.050Z,65.83
2018-10-18T07:03:12.013Z,65.33
2018-10-18T07:05:41.078Z,64.90
2018-10-18T07:08:10.027Z,64.30
2018-10-18T07:10:39.040Z,65.10
2018-10-18T07:13:07.968Z,65.00
2018-10-18T07:15:36.931Z,63.47
2018-10-18T07:18:06.122Z,60.23
2018-10-18T07:20:36.108Z,60.60
2018-10-18T07:23:05.468Z,59.37
2018-10-18T07:25:34.376Z,62.97
2018-10-18T07:28:03.298Z,60.20
2018-10-18T07:30:32.237Z,58.37
2018-10-18T07:33:01.195Z,63.60
2018-10-18T07:35:30.084Z,61.37
2018-10-18T07:37:59.033Z,63.53
2018-10-18T07:40:27.906Z,60.13
2018-10-18T07:42:56.889Z,62.53
2018-10-18T07:45:25.833Z,62.37
2018-10-18T07:47:54.845Z,58.50
2018-10-18T07:50:23.785Z,61.33
2018-10-18T07:52:52.699Z,60.37
2018-10-18T07:55:21.651Z,59.90
2018-10-18T07:57:50.594Z,57.97
2018-10-18T08:00:20.254Z,59.97
2018-10-18T08:02:49.175Z,58.63
2018-10-18T08:05:18.124Z,60.37
2018-10-18T08:07:47.103Z,61.97
2018-10-18T08:10:18.311Z,58.70
2018-10-18T08:12:47.263Z,62.00
2018-10-18T08:15:17.310Z,61.83
2018-10-18T08:17:46.806Z,62.63
2018-10-18T08:20:16.107Z,61.87
2018-10-18T08:22:45.191Z,60.07
2018-10-18T08:25:14.095Z,57.67
2018-10-18T08:27:43.039Z,59.67
2018-10-18T08:30:13.307Z,60.63
2018-10-18T08:32:42.341Z,57.00
2018-10-18T08:35:12.328Z,55.67
2018-10-18T08:37:41.330Z,58.67
2018-10-18T08:40:10.432Z,59.80
2018-10-18T08:42:39.357Z,61.10
2018-10-18T08:45:09.515Z,58.27
2018-10-18T08:47:38.516Z,59.83
2018-10-18T08:50:09.076Z,60.90
2018-10-18T08:52:38.172Z,58.63
2018-10-18T08:55:08.752Z,58.20
2018-10-18T08:57:37.617Z,60.30
2018-10-18T09:00:07.437Z,63.30
2018-10-18T09:02:36.340Z,55.73
2018-10-18T09:05:05.826Z,57.23
2018-10-18T09:07:34.927Z,55.27
2018-10-18T09:10:04.252Z,54.17
2018-10-18T09:12:33.150Z,56.57
2018-10-18T09:15:02.286Z,54.87
2018-10-18T09:17:31.199Z,52.27
2018-10-18T09:20:00.696Z,56.70
2018-10-18T09:22:29.594Z,56.40
2018-10-18T09:24:58.534Z,55.80
2018-10-18T09:27:27.539Z,55.47
2018-10-18T09:29:56.518Z,55.87
2018-10-18T09:32:25.476Z,52.93
2018-10-18T09:34:54.383Z,50.57
2018-10-18T09:37:24.204Z,50.07
2018-10-18T09:39:53.422Z,54.73
2018-10-18T09:42:22.304Z,53.37
2018-10-18T09:44:51.458Z,53.50
2018-10-18T09:47:20.415Z,51.20
2018-10-18T09:49:49.308Z,51.00
2018-10-18T09:52:18.264Z,51.40
2018-10-18T09:54:47.295Z,49.80
2018-10-18T09:57:16.208Z,49.53
2018-10-18T09:59:45.077Z,51.00
2018-10-18T10:02:19.010Z,52.50
2018-10-18T10:04:47.937Z,49.17
2018-10-18T10:07:16.886Z,46.03
2018-10-18T10:09:45.752Z,44.70
2018-10-18T10:12:14.669Z,46.80
2018-10-18T10:14:43.744Z,45.50
2018-10-18T10:17:12.723Z,42.93
2018-10-18T10:19:41.648Z,45.27
2018-10-18T10:22:10.549Z,41.03
2018-10-18T10:24:39.508Z,37.90
2018-10-18T10:27:08.472Z,38.33
2018-10-18T10:29:37.426Z,40.00
2018-10-18T10:32:06.443Z,39.37
2018-10-18T10:34:35.363Z,36.77
2018-10-18T10:37:04.395Z,36.73
2018-10-18T10:39:33.382Z,38.90
2018-10-18T10:42:02.375Z,37.37
2018-10-18T10:44:31.299Z,35.80
2018-10-18T10:47:00.288Z,37.30
2018-10-18T10:49:29.168Z,31.03
2018-10-18T10:51:58.127Z,30.73
2018-10-18T10:54:27.055Z,34.67
2018-10-18T10:56:56.023Z,33.07
2018-10-18T10:59:24.911Z,32.43
2018-10-18T11:01:53.868Z,32.17
2018-10-18T11:04:22.956Z,31.60
2018-10-18T11:06:51.883Z,27.73
2018-10-18T11:09:21.042Z,30.33
2018-10-18T11:11:49.844Z,27.93
2018-10-18T11:14:18.871Z,28.90
2018-10-18T11:16:47.732Z,27.37
2018-10-18T11:19:16.615Z,29.03
2018-10-18T11:21:45.684Z,27.33
2018-10-18T11:24:14.555Z,30.13
2018-10-18T11:26:43.388Z,31.73
2018-10-18T11:29:12.289Z,32.83
2018-10-18T11:31:41.182Z,31.33
2018-10-18T11:34:10.991Z,31.83
2018-10-18T11:36:40.006Z,31.07
2018-10-18T11:39:10.103Z,31.17
2018-10-18T11:41:39.102Z,29.80
2018-10-18T11:44:08.247Z,32.10
2018-10-18T11:46:37.287Z,33.33
2018-10-18T11:49:06.390Z,29.70
2018-10-18T11:51:35.551Z,29.70
2018-10-18T11:54:04.621Z,27.87
2018-10-18T11:56:33.565Z,28.90
2018-10-18T11:59:02.514Z,29.17
2018-10-18T12:01:31.820Z,29.23
2018-10-18T12:04:00.877Z,27.80
2018-10-18T12:06:30.016Z,29.20
2018-10-18T12:08:59.349Z,27.87
2018-10-18T12:11:28.271Z,28.87
2018-10-18T12:13:57.225Z,28.10
2018-10-18T12:16:26.328Z,25.37
2018-10-18T12:18:55.406Z,23.90
2018-10-18T12:21:24.320Z,25.67
2018-10-18T12:23:54.204Z,24.80
2018-10-18T12:26:23.101Z,24.43
2018-10-18T12:28:52.049Z,24.33
2018-10-18T12:31:20.987Z,24.17
2018-10-18T12:33:49.888Z,21.70
2018-10-18T12:36:18.882Z,22.00
2018-10-18T12:38:47.774Z,20.43
2018-10-18T12:41:16.781Z,19.50
2018-10-18T12:43:45.635Z,20.67
2018-10-18T12:46:14.559Z,20.93
2018-10-18T12:48:43.556Z,21.27
2018-10-18T12:51:12.497Z,20.13
2018-10-18T12:53:41.388Z,19.77
2018-10-18T12:56:10.424Z,19.97
2018-10-18T12:58:39.267Z,19.17
2018-10-18T13:01:08.162Z,17.50
2018-10-18T13:03:37.088Z,19.40
2018-10-18T13:06:06.056Z,19.33
2018-10-18T13:08:34.937Z,21.43
2018-10-18T13:11:03.851Z,21.43
2018-10-18T13:13:33.692Z,20.30
2018-10-18T13:16:02.617Z,19.20
2018-10-18T13:18:36.509Z,20.27
2018-10-18T13:21:05.633Z,20.50
2018-10-18T13:23:34.524Z,23.57
2018-10-18T13:26:03.428Z,23.27
2018-10-18T13:28:32.310Z,22.27
2018-10-18T13:31:01.255Z,21.27
2018-10-18T13:33:30.254Z,20.97
2018-10-18T13:35:59.786Z,21.90
2018-10-18T13:38:28.743Z,20.20
2018-10-18T13:40:57.697Z,20.83
2018-10-18T13:43:26.700Z,20.40
2018-10-18T13:45:55.641Z,19.20
2018-10-18T13:48:24.616Z,19.83
2018-10-18T13:50:53.521Z,21.07
2018-10-18T13:53:22.391Z,21.70
2018-10-18T13:55:51.388Z,22.73
2018-10-18T13:58:20.317Z,22.70
2018-10-18T14:00:49.306Z,22.20
2018-10-18T14:03:18.217Z,21.30
2018-10-18T14:05:47.248Z,21.33
2018-10-18T14:08:17.054Z,21.47
2018-10-18T14:10:45.987Z,20.10
2018-10-18T14:13:15.160Z,20.30
2018-10-18T14:15:44.153Z,21.87
2018-10-18T14:18:13.073Z,21.30
2018-10-18T14:20:42.077Z,21.60
2018-10-18T14:23:12.013Z,21.70
2018-10-18T14:25:40.927Z,22.20
2018-10-18T14:28:09.981Z,21.60
2018-10-18T14:30:38.946Z,21.53
2018-10-18T14:33:07.877Z,22.10
2018-10-18T14:35:36.773Z,19.83
2018-10-18T14:38:05.832Z,21.97
2018-10-18T14:40:34.794Z,21.50
2018-10-18T14:43:03.791Z,22.17
2018-10-18T14:45:32.735Z,20.50
2018-10-18T14:48:01.642Z,21.33
2018-10-18T14:50:30.710Z,23.30
2018-10-18T14:52:59.609Z,21.43
2018-10-18T14:55:28.504Z,21.67
2018-10-18T14:57:57.404Z,21.53
2018-10-18T15:00:26.537Z,22.20
2018-10-18T15:02:55.486Z,23.37
2018-10-18T15:05:25.400Z,23.23
2018-10-18T15:07:54.396Z,24.10
2018-10-18T15:10:23.435Z,22.33
2018-10-18T15:12:52.495Z,24.50
2018-10-18T15:15:21.488Z,23.93
2018-10-18T15:17:50.378Z,24.10
2018-10-18T15:20:19.322Z,23.87
2018-10-18T15:22:48.244Z,22.60
2018-10-18T15:25:17.219Z,23.73
2018-10-18T15:27:46.371Z,25.03
2018-10-18T15:30:15.159Z,23.93
2018-10-18T15:32:44.653Z,24.37
2018-10-18T15:35:13.715Z,25.70
2018-10-18T15:37:42.775Z,29.17
2018-10-18T15:40:11.830Z,25.70
2018-10-18T15:42:40.788Z,25.20
2018-10-18T15:45:10.635Z,25.60
2018-10-18T15:47:39.759Z,25.47
2018-10-18T15:50:09.976Z,25.97
2018-10-18T15:52:38.927Z,26.43
2018-10-18T15:55:09.221Z,25.93
2018-10-18T15:57:38.243Z,26.80
2018-10-18T16:00:10.102Z,26.87
2018-10-18T16:02:39.119Z,25.60
2018-10-18T16:05:08.916Z,26.50
2018-10-18T16:07:38.234Z,26.60
2018-10-18T16:10:07.976Z,26.80
2018-10-18T16:12:37.076Z,28.63
2018-10-18T16:15:06.893Z,28.00
2018-10-18T16:17:36.284Z,29.43
2018-10-18T16:20:06.506Z,27.40
2018-10-18T16:22:35.465Z,28.87
2018-10-18T16:25:04.503Z,28.27
2018-10-18T16:27:33.475Z,30.70
2018-10-18T16:30:02.485Z,29.57
2018-10-18T16:32:31.530Z,30.10
2018-10-18T16:35:01.391Z,29.30
2018-10-18T16:37:30.368Z,30.63
2018-10-18T16:39:59.321Z,31.20
2018-10-18T16:42:28.365Z,31.70
2018-10-18T16:44:57.377Z,31.03
2018-10-18T16:47:26.855Z,29.33
2018-10-18T16:49:55.803Z,29.73
2018-10-18T16:52:24.705Z,34.30
2018-10-18T16:54:53.697Z,38.30
2018-10-18T16:57:22.728Z,38.90
2018-10-18T16:59:51.627Z,38.77
2018-10-18T17:02:20.675Z,32.93
2018-10-18T17:04:49.666Z,34.50
2018-10-18T17:07:18.720Z,32.83
2018-10-18T17:09:47.750Z,32.17
2018-10-18T17:12:16.734Z,31.40
2018-10-18T17:14:45.791Z,31.63
2018-10-18T17:17:14.733Z,31.73
2018-10-18T17:19:43.608Z,34.87
2018-10-18T17:22:12.672Z,36.57
2018-10-18T17:24:41.731Z,38.33
2018-10-18T17:27:10.719Z,37.40
2018-10-18T17:29:39.744Z,36.67
2018-10-18T17:32:08.817Z,38.20
2018-10-18T17:34:37.629Z,38.30
2018-10-18T17:37:06.750Z,37.00
2018-10-18T17:39:35.690Z,38.93
2018-10-18T17:42:04.874Z,40.83
2018-10-18T17:44:33.865Z,41.67
2018-10-18T17:47:02.782Z,42.23
2018-10-18T17:49:31.706Z,41.20
2018-10-18T17:52:00.629Z,42.23
2018-10-18T17:54:30.231Z,42.27
2018-10-18T17:56:59.189Z,45.17
2018-10-18T17:59:28.204Z,49.40
2018-10-18T18:01:57.108Z,50.73
2018-10-18T18:04:26.059Z,53.17
2018-10-18T18:06:55.117Z,55.90
2018-10-18T18:09:24.148Z,54.57
2018-10-18T18:11:53.242Z,54.87
2018-10-18T18:14:22.135Z,55.30
2018-10-18T18:16:51.015Z,57.13
2018-10-18T18:19:19.921Z,66.87
2018-10-18T18:21:48.787Z,68.03
2018-10-18T18:24:17.761Z,66.20
2018-10-18T18:26:46.732Z,66.07
2018-10-18T18:29:15.674Z,67.00
2018-10-18T18:31:44.701Z,68.90
2018-10-18T18:34:13.673Z,69.73
2018-10-18T18:36:42.970Z,65.33
2018-10-18T18:39:12.277Z,68.47
2018-10-18T18:41:42.275Z,93.17
2018-10-18T18:44:11.163Z,114.60
2018-10-18T18:46:40.182Z,115.33
2018-10-18T18:49:09.100Z,115.90
2018-10-18T18:51:38.055Z,103.03
2018-10-18T18:54:06.966Z,94.03
2018-10-18T18:56:35.922Z,87.97
2018-10-18T18:59:05.213Z,101.27
2018-10-18T19:01:34.368Z,95.10
2018-10-18T19:04:03.984Z,92.57
2018-10-18T19:06:32.996Z,98.10
2018-10-18T19:09:02.155Z,98.23
2018-10-18T19:11:31.458Z,102.37
2018-10-18T19:14:00.449Z,97.63
2018-10-18T19:16:29.330Z,97.63
2018-10-18T19:18:58.272Z,99.63
2018-10-18T19:21:27.253Z,101.63
2018-10-18T19:23:56.149Z,108.83
2018-10-18T19:26:25.103Z,127.93
2018-10-18T19:28:54.069Z,123.30
2018-10-18T19:31:22.967Z,121.50
2018-10-18T19:33:52.597Z,135.03
2018-10-18T19:36:21.524Z,148.37
2018-10-18T19:38:50.423Z,152.97
2018-10-18T19:41:19.359Z,142.10
2018-10-18T19:43:48.339Z,150.23
2018-10-18T19:46:17.418Z,152.03
2018-10-18T19:48:47.199Z,151.93
2018-10-18T19:51:16.559Z,151.83
2018-10-18T19:53:46.581Z,153.27
2018-10-18T19:56:15.503Z,157.03
2018-10-18T20:01:26.443Z,176.20
2018-10-18T20:03:55.490Z,167.50
2018-10-18T20:06:24.440Z,164.03
2018-10-18T20:08:56.028Z,164.33
2018-10-18T20:11:24.908Z,159.00
2018-10-18T20:13:53.817Z,158.83
2018-10-18T20:16:24.569Z,155.77
2018-10-18T20:18:53.454Z,152.93
2018-10-18T20:21:22.675Z,144.47
2018-10-18T20:23:51.586Z,140.50
2018-10-18T20:26:21.463Z,142.53
2018-10-18T20:28:50.337Z,134.50
2018-10-18T20:31:19.334Z,132.03
2018-10-18T20:33:48.813Z,128.70
2018-10-18T20:36:17.754Z,122.70
2018-10-18T20:38:46.630Z,126.30
2018-10-18T20:41:15.559Z,123.90
2018-10-18T20:43:44.678Z,123.87
2018-10-18T20:46:14.299Z,128.33
2018-10-18T20:48:43.192Z,123.87
2018-10-18T20:51:12.190Z,119.83
2018-10-18T20:53:41.192Z,114.43
2018-10-18T20:56:10.083Z,113.60
2018-10-18T20:58:39.025Z,110.70
2018-10-18T21:01:08.005Z,110.27
2018-10-18T21:03:36.926Z,113.50
2018-10-18T21:06:05.983Z,110.83
2018-10-18T21:08:37.636Z,111.63
2018-10-18T21:11:06.634Z,110.57
2018-10-18T21:13:35.470Z,107.20
2018-10-18T21:16:04.486Z,108.60
2018-10-18T21:18:33.388Z,111.13
2018-10-18T21:21:02.293Z,111.10
2018-10-18T21:23:31.259Z,113.00
2018-10-18T21:26:00.240Z,109.93
2018-10-18T21:28:29.740Z,113.37
2018-10-18T21:30:58.663Z,110.13
2018-10-18T21:33:27.555Z,109.47
2018-10-18T21:35:56.456Z,107.03
2018-10-18T21:38:25.356Z,102.27
2018-10-18T21:40:54.262Z,107.17
2018-10-18T21:43:23.098Z,103.70
2018-10-18T21:45:56.463Z,100.57
2018-10-18T21:48:26.587Z,100.83
2018-10-18T21:50:55.441Z,101.93
2018-10-18T21:53:24.385Z,101.63
2018-10-18T21:55:53.236Z,105.40
2018-10-18T21:58:22.217Z,110.47
2018-10-18T22:00:51.137Z,103.07
2018-10-18T22:03:20.076Z,106.70
2018-10-18T22:05:49.214Z,108.00
2018-10-18T22:08:18.425Z,108.73
2018-10-18T22:10:47.580Z,109.83
2018-10-18T22:13:16.727Z,114.73
2018-10-18T22:15:45.932Z,111.67
2018-10-18T22:18:15.063Z,109.43
2018-10-18T22:20:44.313Z,112.10
2018-10-18T22:23:13.539Z,113.90
2018-10-18T22:25:42.699Z,116.37
2018-10-18T22:28:11.884Z,120.63
2018-10-18T22:30:41.108Z,122.40
2018-10-18T22:33:10.269Z,128.20
2018-10-18T22:35:39.423Z,126.97
2018-10-18T22:38:08.626Z,129.40
2018-10-18T22:40:37.813Z,128.90
2018-10-18T22:43:07.191Z,131.30
2018-10-18T22:45:36.407Z,130.53
2018-10-18T22:48:05.741Z,132.80
2018-10-18T22:50:34.921Z,130.43
2018-10-18T22:53:04.096Z,137.90
2018-10-18T22:55:33.300Z,133.13
2018-10-18T22:58:03.135Z,130.43
2018-10-18T23:00:32.325Z,125.97
2018-10-18T23:03:01.615Z,124.77
2018-10-18T23:05:30.759Z,127.53
2018-10-18T23:07:59.892Z,121.33
2018-10-18T23:10:30.117Z,120.13
2018-10-18T23:12:59.376Z,124.23
2018-10-18T23:15:28.527Z,124.63
2018-10-18T23:17:57.661Z,122.03
2018-10-18T23:20:26.840Z,122.93
2018-10-18T23:22:56.049Z,125.33
2018-10-18T23:25:25.171Z,121.67
2018-10-18T23:27:54.303Z,121.83
2018-10-18T23:30:23.385Z,119.47
2018-10-18T23:32:52.472Z,117.33
2018-10-18T23:35:21.347Z,113.67
2018-10-18T23:37:50.261Z,111.93
2018-10-18T23:40:19.161Z,116.10
2018-10-18T23:42:48.051Z,114.47
2018-10-18T23:45:17.088Z,114.27
2018-10-18T23:47:45.883Z,114.23
2018-10-18T23:50:14.825Z,111.03
2018-10-18T23:52:43.735Z,109.93
2018-10-18T23:55:12.640Z,110.77
2018-10-18T23:57:41.582Z,108.00
